sensor_id;sensor_type;location;lat;lon;timestamp;P1;durP1;ratioP1;P2;durP2;ratioP2
25982;SDS011;13773;48.868;10.730;2023-09-08T00:01:55;6.93;;;6.30;;
25982;SDS011;13773;48.868;10.730;2023-09-08T00:04:21;6.30;;;5.80;;
25982;SDS011;13773;48.868;10.730;2023-09-08T00:06:47;6.43;;;5.90;;
25982;SDS011;13773;48.868;10.730;2023-09-08T00:09:12;7.27;;;6.57;;
25982;SDS011;13773;48.868;10.730;2023-09-08T00:11:38;7.07;;;6.13;;
25982;SDS011;13773;48.868;10.730;2023-09-08T00:14:04;6.20;;;5.60;;
25982;SDS011;13773;48.868;10.730;2023-09-08T00:16:30;6.70;;;6.07;;
25982;SDS011;13773;48.868;10.730;2023-09-08T00:18:56;7.77;;;6.37;;
25982;SDS011;13773;48.868;10.730;2023-09-08T00:21:25;7.20;;;5.90;;
25982;SDS011;13773;48.868;10.730;2023-09-08T00:23:54;6.63;;;5.93;;
25982;SDS011;13773;48.868;10.730;2023-09-08T00:26:19;6.03;;;5.33;;
25982;SDS011;13773;48.868;10.730;2023-09-08T00:28:45;7.00;;;6.10;;
25982;SDS011;13773;48.868;10.730;2023-09-08T00:31:12;8.17;;;6.00;;
25982;SDS011;13773;48.868;10.730;2023-09-08T00:33:37;8.17;;;6.20;;
25982;SDS011;13773;48.868;10.730;2023-09-08T00:36:03;5.97;;;5.37;;
25982;SDS011;13773;48.868;10.730;2023-09-08T00:38:29;6.03;;;5.50;;
25982;SDS011;13773;48.868;10.730;2023-09-08T00:40:55;6.80;;;6.10;;
25982;SDS011;13773;48.868;10.730;2023-09-08T00:43:20;8.03;;;5.57;;
25982;SDS011;13773;48.868;10.730;2023-09-08T00:45:46;6.30;;;5.70;;
25982;SDS011;13773;48.868;10.730;2023-09-08T00:48:13;6.70;;;5.93;;
25982;SDS011;13773;48.868;10.730;2023-09-08T00:50:39;7.40;;;5.63;;
25982;SDS011;13773;48.868;10.730;2023-09-08T00:53:05;8.57;;;6.73;;
25982;SDS011;13773;48.868;10.730;2023-09-08T00:55:31;8.37;;;6.20;;
25982;SDS011;13773;48.868;10.730;2023-09-08T00:57:58;9.33;;;6.40;;
25982;SDS011;13773;48.868;10.730;2023-09-08T01:00:24;7.00;;;6.30;;
25982;SDS011;13773;48.868;10.730;2023-09-08T01:02:50;6.87;;;6.27;;
25982;SDS011;13773;48.868;10.730;2023-09-08T01:05:16;7.00;;;6.27;;
25982;SDS011;13773;48.868;10.730;2023-09-08T01:07:42;6.60;;;5.93;;
25982;SDS011;13773;48.868;10.730;2023-09-08T01:10:09;7.30;;;6.60;;
25982;SDS011;13773;48.868;10.730;2023-09-08T01:12:35;6.70;;;5.97;;
25982;SDS011;13773;48.868;10.730;2023-09-08T01:15:02;6.30;;;5.77;;
25982;SDS011;13773;48.868;10.730;2023-09-08T01:17:29;6.73;;;6.13;;
25982;SDS011;13773;48.868;10.730;2023-09-08T01:19:55;7.10;;;6.50;;
25982;SDS011;13773;48.868;10.730;2023-09-08T01:25:21;6.10;;;5.60;;
25982;SDS011;13773;48.868;10.730;2023-09-08T01:27:58;9.00;;;6.30;;
25982;SDS011;13773;48.868;10.730;2023-09-08T01:30:27;6.80;;;6.00;;
25982;SDS011;13773;48.868;10.730;2023-09-08T01:32:57;6.60;;;5.93;;
25982;SDS011;13773;48.868;10.730;2023-09-08T01:35:23;6.63;;;6.03;;
25982;SDS011;13773;48.868;10.730;2023-09-08T01:37:49;6.70;;;6.00;;
25982;SDS011;13773;48.868;10.730;2023-09-08T01:40:15;6.57;;;5.90;;
25982;SDS011;13773;48.868;10.730;2023-09-08T01:42:41;7.40;;;6.20;;
25982;SDS011;13773;48.868;10.730;2023-09-08T01:45:07;9.13;;;6.03;;
25982;SDS011;13773;48.868;10.730;2023-09-08T01:47:33;6.60;;;6.00;;
25982;SDS011;13773;48.868;10.730;2023-09-08T01:50:00;8.00;;;6.00;;
25982;SDS011;13773;48.868;10.730;2023-09-08T01:52:26;6.20;;;5.70;;
25982;SDS011;13773;48.868;10.730;2023-09-08T01:54:52;6.17;;;5.60;;
25982;SDS011;13773;48.868;10.730;2023-09-08T01:57:18;6.97;;;5.87;;
25982;SDS011;13773;48.868;10.730;2023-09-08T01:59:43;7.83;;;6.07;;
25982;SDS011;13773;48.868;10.730;2023-09-08T02:02:13;7.03;;;5.57;;
25982;SDS011;13773;48.868;10.730;2023-09-08T02:04:39;6.80;;;5.47;;
25982;SDS011;13773;48.868;10.730;2023-09-08T02:07:05;6.40;;;5.80;;
25982;SDS011;13773;48.868;10.730;2023-09-08T02:09:31;7.23;;;5.33;;
25982;SDS011;13773;48.868;10.730;2023-09-08T02:11:58;6.40;;;5.43;;
25982;SDS011;13773;48.868;10.730;2023-09-08T02:14:23;5.90;;;5.30;;
25982;SDS011;13773;48.868;10.730;2023-09-08T02:16:49;8.77;;;5.50;;
25982;SDS011;13773;48.868;10.730;2023-09-08T02:19:15;5.90;;;5.30;;
25982;SDS011;13773;48.868;10.730;2023-09-08T02:21:40;7.90;;;5.70;;
25982;SDS011;13773;48.868;10.730;2023-09-08T02:24:06;5.83;;;5.23;;
25982;SDS011;13773;48.868;10.730;2023-09-08T02:26:32;6.27;;;5.10;;
25982;SDS011;13773;48.868;10.730;2023-09-08T02:28:59;5.77;;;4.90;;
25982;SDS011;13773;48.868;10.730;2023-09-08T02:31:26;5.67;;;5.17;;
25982;SDS011;13773;48.868;10.730;2023-09-08T02:33:52;7.30;;;5.00;;
25982;SDS011;13773;48.868;10.730;2023-09-08T02:36:17;6.50;;;5.80;;
25982;SDS011;13773;48.868;10.730;2023-09-08T02:38:50;6.20;;;4.97;;
25982;SDS011;13773;48.868;10.730;2023-09-08T02:41:19;6.53;;;4.87;;
25982;SDS011;13773;48.868;10.730;2023-09-08T02:43:46;5.50;;;5.00;;
25982;SDS011;13773;48.868;10.730;2023-09-08T02:46:12;5.73;;;5.23;;
25982;SDS011;13773;48.868;10.730;2023-09-08T02:48:38;6.23;;;5.63;;
25982;SDS011;13773;48.868;10.730;2023-09-08T02:51:04;6.20;;;5.60;;
25982;SDS011;13773;48.868;10.730;2023-09-08T02:53:29;6.07;;;5.47;;
25982;SDS011;13773;48.868;10.730;2023-09-08T02:55:55;7.10;;;6.50;;
25982;SDS011;13773;48.868;10.730;2023-09-08T02:58:21;8.13;;;6.80;;
25982;SDS011;13773;48.868;10.730;2023-09-08T03:00:47;8.57;;;7.73;;
25982;SDS011;13773;48.868;10.730;2023-09-08T03:03:13;8.43;;;7.63;;
25982;SDS011;13773;48.868;10.730;2023-09-08T03:05:39;6.80;;;6.03;;
25982;SDS011;13773;48.868;10.730;2023-09-08T03:08:05;7.13;;;6.13;;
25982;SDS011;13773;48.868;10.730;2023-09-08T03:10:31;6.83;;;6.23;;
25982;SDS011;13773;48.868;10.730;2023-09-08T03:13:02;7.20;;;6.50;;
25982;SDS011;13773;48.868;10.730;2023-09-08T03:15:29;8.23;;;7.53;;
25982;SDS011;13773;48.868;10.730;2023-09-08T03:17:55;11.13;;;9.43;;
25982;SDS011;13773;48.868;10.730;2023-09-08T03:20:22;10.23;;;9.23;;
25982;SDS011;13773;48.868;10.730;2023-09-08T03:22:47;9.03;;;8.13;;
25982;SDS011;13773;48.868;10.730;2023-09-08T03:25:13;10.23;;;9.13;;
25982;SDS011;13773;48.868;10.730;2023-09-08T03:27:40;9.73;;;8.80;;
25982;SDS011;13773;48.868;10.730;2023-09-08T03:30:06;10.90;;;8.60;;
25982;SDS011;13773;48.868;10.730;2023-09-08T03:32:32;8.23;;;7.53;;
25982;SDS011;13773;48.868;10.730;2023-09-08T03:34:58;8.93;;;8.07;;
25982;SDS011;13773;48.868;10.730;2023-09-08T03:37:24;7.97;;;7.27;;
25982;SDS011;13773;48.868;10.730;2023-09-08T03:39:51;8.90;;;8.00;;
25982;SDS011;13773;48.868;10.730;2023-09-08T03:42:17;7.70;;;6.87;;
25982;SDS011;13773;48.868;10.730;2023-09-08T03:44:43;8.30;;;7.33;;
25982;SDS011;13773;48.868;10.730;2023-09-08T03:47:08;7.97;;;6.83;;
25982;SDS011;13773;48.868;10.730;2023-09-08T03:49:34;9.37;;;7.73;;
25982;SDS011;13773;48.868;10.730;2023-09-08T03:52:00;7.70;;;7.00;;
25982;SDS011;13773;48.868;10.730;2023-09-08T03:54:26;7.80;;;7.10;;
25982;SDS011;13773;48.868;10.730;2023-09-08T03:56:51;7.40;;;6.70;;
25982;SDS011;13773;48.868;10.730;2023-09-08T03:59:17;7.07;;;6.17;;
25982;SDS011;13773;48.868;10.730;2023-09-08T04:01:43;8.30;;;7.07;;
25982;SDS011;13773;48.868;10.730;2023-09-08T04:04:08;7.50;;;6.80;;
25982;SDS011;13773;48.868;10.730;2023-09-08T04:06:34;8.23;;;7.33;;
25982;SDS011;13773;48.868;10.730;2023-09-08T04:09:00;7.63;;;6.90;;
25982;SDS011;13773;48.868;10.730;2023-09-08T04:11:25;8.13;;;7.33;;
25982;SDS011;13773;48.868;10.730;2023-09-08T04:13:51;9.20;;;7.23;;
25982;SDS011;13773;48.868;10.730;2023-09-08T04:16:17;8.03;;;7.23;;
25982;SDS011;13773;48.868;10.730;2023-09-08T04:18:43;8.30;;;7.50;;
25982;SDS011;13773;48.868;10.730;2023-09-08T04:21:09;8.27;;;7.47;;
25982;SDS011;13773;48.868;10.730;2023-09-08T04:23:35;7.97;;;6.73;;
25982;SDS011;13773;48.868;10.730;2023-09-08T04:26:01;9.50;;;6.97;;
25982;SDS011;13773;48.868;10.730;2023-09-08T04:28:26;7.67;;;6.97;;
25982;SDS011;13773;48.868;10.730;2023-09-08T04:30:52;8.10;;;7.33;;
25982;SDS011;13773;48.868;10.730;2023-09-08T04:33:18;8.13;;;7.27;;
25982;SDS011;13773;48.868;10.730;2023-09-08T04:35:43;8.00;;;7.30;;
25982;SDS011;13773;48.868;10.730;2023-09-08T04:38:09;7.70;;;6.87;;
25982;SDS011;13773;48.868;10.730;2023-09-08T04:40:35;13.00;;;7.50;;
25982;SDS011;13773;48.868;10.730;2023-09-08T04:43:00;8.70;;;7.37;;
25982;SDS011;13773;48.868;10.730;2023-09-08T04:45:26;8.13;;;7.40;;
25982;SDS011;13773;48.868;10.730;2023-09-08T04:47:52;8.17;;;7.37;;
25982;SDS011;13773;48.868;10.730;2023-09-08T04:50:17;9.00;;;7.00;;
25982;SDS011;13773;48.868;10.730;2023-09-08T04:52:43;7.63;;;6.93;;
25982;SDS011;13773;48.868;10.730;2023-09-08T04:55:09;8.60;;;7.47;;
25982;SDS011;13773;48.868;10.730;2023-09-08T04:57:35;7.47;;;6.57;;
25982;SDS011;13773;48.868;10.730;2023-09-08T05:00:01;8.07;;;7.20;;
25982;SDS011;13773;48.868;10.730;2023-09-08T05:02:27;8.20;;;7.50;;
25982;SDS011;13773;48.868;10.730;2023-09-08T05:04:53;9.00;;;7.30;;
25982;SDS011;13773;48.868;10.730;2023-09-08T05:07:19;7.07;;;6.40;;
25982;SDS011;13773;48.868;10.730;2023-09-08T05:09:44;9.07;;;6.90;;
25982;SDS011;13773;48.868;10.730;2023-09-08T05:12:10;8.80;;;7.17;;
25982;SDS011;13773;48.868;10.730;2023-09-08T05:14:35;8.67;;;6.87;;
25982;SDS011;13773;48.868;10.730;2023-09-08T05:17:02;10.33;;;7.17;;
25982;SDS011;13773;48.868;10.730;2023-09-08T05:19:29;7.20;;;6.50;;
25982;SDS011;13773;48.868;10.730;2023-09-08T05:21:55;7.83;;;7.10;;
25982;SDS011;13773;48.868;10.730;2023-09-08T05:24:21;6.93;;;6.20;;
25982;SDS011;13773;48.868;10.730;2023-09-08T05:26:47;8.87;;;7.13;;
25982;SDS011;13773;48.868;10.730;2023-09-08T05:29:13;7.00;;;6.03;;
25982;SDS011;13773;48.868;10.730;2023-09-08T05:31:38;6.93;;;6.30;;
25982;SDS011;13773;48.868;10.730;2023-09-08T05:34:04;8.30;;;6.90;;
25982;SDS011;13773;48.868;10.730;2023-09-08T05:36:30;9.53;;;6.47;;
25982;SDS011;13773;48.868;10.730;2023-09-08T05:38:57;8.60;;;6.80;;
25982;SDS011;13773;48.868;10.730;2023-09-08T05:41:24;6.83;;;6.20;;
25982;SDS011;13773;48.868;10.730;2023-09-08T05:43:50;6.83;;;6.10;;
25982;SDS011;13773;48.868;10.730;2023-09-08T05:46:15;9.23;;;6.63;;
25982;SDS011;13773;48.868;10.730;2023-09-08T05:48:42;7.93;;;6.43;;
25982;SDS011;13773;48.868;10.730;2023-09-08T05:51:07;6.70;;;6.10;;
25982;SDS011;13773;48.868;10.730;2023-09-08T05:53:33;8.13;;;6.47;;
25982;SDS011;13773;48.868;10.730;2023-09-08T05:56:00;7.93;;;6.40;;
25982;SDS011;13773;48.868;10.730;2023-09-08T05:58:26;7.53;;;6.80;;
25982;SDS011;13773;48.868;10.730;2023-09-08T06:00:52;7.43;;;6.43;;
25982;SDS011;13773;48.868;10.730;2023-09-08T06:03:19;8.80;;;7.03;;
25982;SDS011;13773;48.868;10.730;2023-09-08T06:05:44;8.77;;;6.60;;
25982;SDS011;13773;48.868;10.730;2023-09-08T06:08:10;7.43;;;6.70;;
25982;SDS011;13773;48.868;10.730;2023-09-08T06:10:37;7.50;;;6.63;;
25982;SDS011;13773;48.868;10.730;2023-09-08T06:13:03;7.50;;;6.53;;
25982;SDS011;13773;48.868;10.730;2023-09-08T06:15:29;7.10;;;6.50;;
25982;SDS011;13773;48.868;10.730;2023-09-08T06:17:55;7.50;;;6.80;;
25982;SDS011;13773;48.868;10.730;2023-09-08T06:20:20;8.17;;;6.20;;
25982;SDS011;13773;48.868;10.730;2023-09-08T06:22:46;9.50;;;7.20;;
25982;SDS011;13773;48.868;10.730;2023-09-08T06:25:12;7.27;;;6.57;;
25982;SDS011;13773;48.868;10.730;2023-09-08T06:27:38;7.23;;;6.57;;
25982;SDS011;13773;48.868;10.730;2023-09-08T06:30:04;6.90;;;6.20;;
25982;SDS011;13773;48.868;10.730;2023-09-08T06:32:30;7.67;;;6.87;;
25982;SDS011;13773;48.868;10.730;2023-09-08T06:34:56;8.60;;;6.63;;
25982;SDS011;13773;48.868;10.730;2023-09-08T06:37:22;7.67;;;6.37;;
25982;SDS011;13773;48.868;10.730;2023-09-08T06:39:47;6.33;;;5.73;;
25982;SDS011;13773;48.868;10.730;2023-09-08T06:42:13;6.87;;;6.17;;
25982;SDS011;13773;48.868;10.730;2023-09-08T06:44:38;9.27;;;6.90;;
25982;SDS011;13773;48.868;10.730;2023-09-08T06:47:04;6.87;;;6.27;;
25982;SDS011;13773;48.868;10.730;2023-09-08T06:49:32;7.90;;;6.57;;
25982;SDS011;13773;48.868;10.730;2023-09-08T06:51:58;7.33;;;6.63;;
25982;SDS011;13773;48.868;10.730;2023-09-08T06:54:23;6.67;;;6.00;;
25982;SDS011;13773;48.868;10.730;2023-09-08T06:56:49;7.10;;;6.20;;
25982;SDS011;13773;48.868;10.730;2023-09-08T06:59:15;6.27;;;5.70;;
25982;SDS011;13773;48.868;10.730;2023-09-08T07:01:42;6.97;;;5.60;;
25982;SDS011;13773;48.868;10.730;2023-09-08T07:04:07;6.23;;;5.47;;
25982;SDS011;13773;48.868;10.730;2023-09-08T07:06:33;6.33;;;5.43;;
25982;SDS011;13773;48.868;10.730;2023-09-08T07:09:00;7.87;;;5.60;;
25982;SDS011;13773;48.868;10.730;2023-09-08T07:11:26;6.43;;;4.70;;
25982;SDS011;13773;48.868;10.730;2023-09-08T07:13:52;5.90;;;5.30;;
25982;SDS011;13773;48.868;10.730;2023-09-08T07:16:18;6.73;;;5.23;;
25982;SDS011;13773;48.868;10.730;2023-09-08T07:18:43;6.20;;;5.60;;
25982;SDS011;13773;48.868;10.730;2023-09-08T07:21:09;5.07;;;4.57;;
25982;SDS011;13773;48.868;10.730;2023-09-08T07:23:35;6.43;;;5.07;;
25982;SDS011;13773;48.868;10.730;2023-09-08T07:26:02;5.73;;;5.10;;
25982;SDS011;13773;48.868;10.730;2023-09-08T07:28:28;6.17;;;5.13;;
25982;SDS011;13773;48.868;10.730;2023-09-08T07:31:00;5.50;;;5.00;;
25982;SDS011;13773;48.868;10.730;2023-09-08T07:33:27;5.67;;;5.17;;
25982;SDS011;13773;48.868;10.730;2023-09-08T07:35:52;5.37;;;4.77;;
25982;SDS011;13773;48.868;10.730;2023-09-08T07:38:18;5.63;;;5.13;;
25982;SDS011;13773;48.868;10.730;2023-09-08T07:40:44;6.87;;;5.50;;
25982;SDS011;13773;48.868;10.730;2023-09-08T07:43:09;6.00;;;5.17;;
25982;SDS011;13773;48.868;10.730;2023-09-08T07:45:35;5.93;;;5.37;;
25982;SDS011;13773;48.868;10.730;2023-09-08T07:48:00;7.77;;;5.37;;
25982;SDS011;13773;48.868;10.730;2023-09-08T07:50:27;6.33;;;5.73;;
25982;SDS011;13773;48.868;10.730;2023-09-08T07:52:55;6.30;;;5.23;;
25982;SDS011;13773;48.868;10.730;2023-09-08T07:55:21;7.97;;;5.10;;
25982;SDS011;13773;48.868;10.730;2023-09-08T07:57:48;9.30;;;5.63;;
25982;SDS011;13773;48.868;10.730;2023-09-08T08:00:15;5.43;;;4.93;;
25982;SDS011;13773;48.868;10.730;2023-09-08T08:02:46;5.50;;;5.00;;
25982;SDS011;13773;48.868;10.730;2023-09-08T08:05:16;5.30;;;4.63;;
25982;SDS011;13773;48.868;10.730;2023-09-08T08:07:42;5.10;;;4.70;;
25982;SDS011;13773;48.868;10.730;2023-09-08T08:10:09;5.67;;;5.10;;
25982;SDS011;13773;48.868;10.730;2023-09-08T08:12:36;5.33;;;4.80;;
25982;SDS011;13773;48.868;10.730;2023-09-08T08:15:02;7.00;;;4.83;;
25982;SDS011;13773;48.868;10.730;2023-09-08T08:17:28;5.23;;;4.73;;
25982;SDS011;13773;48.868;10.730;2023-09-08T08:19:54;5.97;;;5.33;;
25982;SDS011;13773;48.868;10.730;2023-09-08T08:22:21;6.10;;;5.50;;
25982;SDS011;13773;48.868;10.730;2023-09-08T08:24:46;5.43;;;4.93;;
25982;SDS011;13773;48.868;10.730;2023-09-08T08:27:12;8.03;;;6.20;;
25982;SDS011;13773;48.868;10.730;2023-09-08T08:29:38;6.70;;;6.03;;
25982;SDS011;13773;48.868;10.730;2023-09-08T08:32:05;5.87;;;5.27;;
25982;SDS011;13773;48.868;10.730;2023-09-08T08:34:31;6.10;;;5.60;;
25982;SDS011;13773;48.868;10.730;2023-09-08T08:36:56;10.07;;;5.57;;
25982;SDS011;13773;48.868;10.730;2023-09-08T08:39:22;10.10;;;5.67;;
25982;SDS011;13773;48.868;10.730;2023-09-08T08:41:48;7.40;;;5.13;;
25982;SDS011;13773;48.868;10.730;2023-09-08T08:44:14;7.77;;;5.87;;
25982;SDS011;13773;48.868;10.730;2023-09-08T08:46:42;5.87;;;5.27;;
25982;SDS011;13773;48.868;10.730;2023-09-08T08:49:08;6.40;;;5.03;;
25982;SDS011;13773;48.868;10.730;2023-09-08T08:51:35;7.67;;;5.83;;
25982;SDS011;13773;48.868;10.730;2023-09-08T08:54:03;5.70;;;5.20;;
25982;SDS011;13773;48.868;10.730;2023-09-08T08:56:32;6.03;;;5.40;;
25982;SDS011;13773;48.868;10.730;2023-09-08T08:59:00;5.70;;;5.20;;
25982;SDS011;13773;48.868;10.730;2023-09-08T09:01:26;5.77;;;5.27;;
25982;SDS011;13773;48.868;10.730;2023-09-08T09:03:54;6.80;;;6.10;;
25982;SDS011;13773;48.868;10.730;2023-09-08T09:06:20;6.07;;;5.57;;
25982;SDS011;13773;48.868;10.730;2023-09-08T09:08:46;7.00;;;5.70;;
25982;SDS011;13773;48.868;10.730;2023-09-08T09:11:12;5.57;;;4.90;;
25982;SDS011;13773;48.868;10.730;2023-09-08T09:13:38;5.90;;;5.40;;
25982;SDS011;13773;48.868;10.730;2023-09-08T09:16:04;5.97;;;5.27;;
25982;SDS011;13773;48.868;10.730;2023-09-08T09:18:36;7.10;;;5.37;;
25982;SDS011;13773;48.868;10.730;2023-09-08T09:21:18;6.17;;;5.10;;
25982;SDS011;13773;48.868;10.730;2023-09-08T09:23:43;6.43;;;5.60;;
25982;SDS011;13773;48.868;10.730;2023-09-08T09:26:09;6.57;;;5.90;;
25982;SDS011;13773;48.868;10.730;2023-09-08T09:28:47;6.10;;;5.47;;
25982;SDS011;13773;48.868;10.730;2023-09-08T09:31:13;7.30;;;4.93;;
25982;SDS011;13773;48.868;10.730;2023-09-08T09:33:39;5.87;;;5.37;;
25982;SDS011;13773;48.868;10.730;2023-09-08T09:36:04;5.93;;;5.33;;
25982;SDS011;13773;48.868;10.730;2023-09-08T09:38:32;6.30;;;5.70;;
25982;SDS011;13773;48.868;10.730;2023-09-08T09:41:00;6.70;;;5.43;;
25982;SDS011;13773;48.868;10.730;2023-09-08T09:43:27;6.27;;;5.47;;
25982;SDS011;13773;48.868;10.730;2023-09-08T09:45:54;6.83;;;5.87;;
25982;SDS011;13773;48.868;10.730;2023-09-08T09:48:21;6.80;;;5.70;;
25982;SDS011;13773;48.868;10.730;2023-09-08T09:50:48;5.90;;;5.40;;
25982;SDS011;13773;48.868;10.730;2023-09-08T09:53:15;6.17;;;5.57;;
25982;SDS011;13773;48.868;10.730;2023-09-08T09:55:44;5.70;;;5.20;;
25982;SDS011;13773;48.868;10.730;2023-09-08T09:58:11;5.93;;;5.43;;
25982;SDS011;13773;48.868;10.730;2023-09-08T10:00:38;6.53;;;6.03;;
25982;SDS011;13773;48.868;10.730;2023-09-08T10:03:06;6.37;;;5.87;;
25982;SDS011;13773;48.868;10.730;2023-09-08T10:05:31;6.30;;;5.80;;
25982;SDS011;13773;48.868;10.730;2023-09-08T10:07:58;9.50;;;5.97;;
25982;SDS011;13773;48.868;10.730;2023-09-08T10:10:24;6.93;;;5.57;;
25982;SDS011;13773;48.868;10.730;2023-09-08T10:12:53;6.77;;;6.00;;
25982;SDS011;13773;48.868;10.730;2023-09-08T10:15:20;7.67;;;6.40;;
25982;SDS011;13773;48.868;10.730;2023-09-08T10:17:47;5.97;;;5.43;;
25982;SDS011;13773;48.868;10.730;2023-09-08T10:20:25;6.90;;;6.00;;
25982;SDS011;13773;48.868;10.730;2023-09-08T10:23:36;6.20;;;5.70;;
25982;SDS011;13773;48.868;10.730;2023-09-08T10:25:50;6.55;;;6.00;;
25982;SDS011;13773;48.868;10.730;2023-09-08T10:28:19;6.93;;;6.32;;
25982;SDS011;13773;48.868;10.730;2023-09-08T10:30:50;6.77;;;5.90;;
25982;SDS011;13773;48.868;10.730;2023-09-08T10:33:17;7.80;;;6.25;;
25982;SDS011;13773;48.868;10.730;2023-09-08T10:35:44;7.25;;;6.05;;
25982;SDS011;13773;48.868;10.730;2023-09-08T10:40:53;7.43;;;6.07;;
25982;SDS011;13773;48.868;10.730;2023-09-08T10:43:57;10.18;;;6.63;;
25982;SDS011;13773;48.868;10.730;2023-09-08T10:46:27;6.50;;;5.97;;
25982;SDS011;13773;48.868;10.730;2023-09-08T10:48:54;6.53;;;5.43;;
25982;SDS011;13773;48.868;10.730;2023-09-08T10:51:25;6.32;;;5.72;;
25982;SDS011;13773;48.868;10.730;2023-09-08T10:53:51;6.30;;;5.72;;
25982;SDS011;13773;48.868;10.730;2023-09-08T10:56:17;6.30;;;5.63;;
25982;SDS011;13773;48.868;10.730;2023-09-08T10:58:51;6.80;;;6.20;;
25982;SDS011;13773;48.868;10.730;2023-09-08T11:01:18;6.30;;;5.65;;
25982;SDS011;13773;48.868;10.730;2023-09-08T11:03:51;5.90;;;5.40;;
25982;SDS011;13773;48.868;10.730;2023-09-08T11:06:19;6.05;;;5.55;;
25982;SDS011;13773;48.868;10.730;2023-09-08T11:08:47;6.78;;;5.70;;
25982;SDS011;13773;48.868;10.730;2023-09-08T11:11:14;6.50;;;5.90;;
25982;SDS011;13773;48.868;10.730;2023-09-08T11:13:41;6.68;;;5.65;;
25982;SDS011;13773;48.868;10.730;2023-09-08T11:16:10;6.70;;;5.95;;
25982;SDS011;13773;48.868;10.730;2023-09-08T11:18:36;6.15;;;5.65;;
25982;SDS011;13773;48.868;10.730;2023-09-08T11:21:02;5.82;;;5.30;;
25982;SDS011;13773;48.868;10.730;2023-09-08T11:23:33;6.03;;;5.47;;
25982;SDS011;13773;48.868;10.730;2023-09-08T11:25:59;6.13;;;5.60;;
25982;SDS011;13773;48.868;10.730;2023-09-08T11:28:26;6.72;;;5.75;;
25982;SDS011;13773;48.868;10.730;2023-09-08T11:30:52;7.38;;;5.85;;
25982;SDS011;13773;48.868;10.730;2023-09-08T11:33:20;5.90;;;5.40;;
25982;SDS011;13773;48.868;10.730;2023-09-08T11:35:50;8.73;;;6.05;;
25982;SDS011;13773;48.868;10.730;2023-09-08T11:38:18;7.18;;;5.80;;
25982;SDS011;13773;48.868;10.730;2023-09-08T11:40:54;5.78;;;5.28;;
25982;SDS011;13773;48.868;10.730;2023-09-08T11:43:22;5.50;;;5.00;;
25982;SDS011;13773;48.868;10.730;2023-09-08T11:45:48;5.78;;;5.22;;
25982;SDS011;13773;48.868;10.730;2023-09-08T11:48:14;5.68;;;5.18;;
25982;SDS011;13773;48.868;10.730;2023-09-08T11:50:44;5.50;;;5.07;;
25982;SDS011;13773;48.868;10.730;2023-09-08T11:53:09;6.53;;;5.95;;
25982;SDS011;13773;48.868;10.730;2023-09-08T11:55:35;6.00;;;5.40;;
25982;SDS011;13773;48.868;10.730;2023-09-08T11:58:04;5.60;;;5.10;;
25982;SDS011;13773;48.868;10.730;2023-09-08T12:00:31;5.90;;;5.32;;
25982;SDS011;13773;48.868;10.730;2023-09-08T12:03:08;5.88;;;5.38;;
25982;SDS011;13773;48.868;10.730;2023-09-08T12:05:39;6.70;;;5.57;;
25982;SDS011;13773;48.868;10.730;2023-09-08T12:08:06;7.03;;;6.20;;
25982;SDS011;13773;48.868;10.730;2023-09-08T12:10:38;6.40;;;5.80;;
25982;SDS011;13773;48.868;10.730;2023-09-08T12:13:07;7.50;;;5.75;;
25982;SDS011;13773;48.868;10.730;2023-09-08T12:15:40;6.55;;;6.05;;
25982;SDS011;13773;48.868;10.730;2023-09-08T12:18:07;8.20;;;5.65;;
25982;SDS011;13773;48.868;10.730;2023-09-08T12:20:35;6.28;;;5.78;;
25982;SDS011;13773;48.868;10.730;2023-09-08T12:23:03;6.30;;;5.57;;
25982;SDS011;13773;48.868;10.730;2023-09-08T12:25:45;5.80;;;5.28;;
25982;SDS011;13773;48.868;10.730;2023-09-08T12:28:21;5.65;;;5.22;;
25982;SDS011;13773;48.868;10.730;2023-09-08T12:30:48;6.28;;;5.78;;
25982;SDS011;13773;48.868;10.730;2023-09-08T12:33:14;6.13;;;5.40;;
25982;SDS011;13773;48.868;10.730;2023-09-08T12:35:43;5.63;;;4.97;;
25982;SDS011;13773;48.868;10.730;2023-09-08T12:38:10;7.15;;;5.43;;
25982;SDS011;13773;48.868;10.730;2023-09-08T12:40:37;5.95;;;5.43;;
25982;SDS011;13773;48.868;10.730;2023-09-08T12:43:03;6.25;;;5.75;;
25982;SDS011;13773;48.868;10.730;2023-09-08T12:45:30;6.25;;;5.65;;
25982;SDS011;13773;48.868;10.730;2023-09-08T12:47:57;7.30;;;5.75;;
25982;SDS011;13773;48.868;10.730;2023-09-08T12:50:27;6.15;;;5.53;;
25982;SDS011;13773;48.868;10.730;2023-09-08T12:52:53;6.05;;;5.18;;
25982;SDS011;13773;48.868;10.730;2023-09-08T12:55:19;6.30;;;5.35;;
25982;SDS011;13773;48.868;10.730;2023-09-08T12:57:45;6.75;;;6.15;;
25982;SDS011;13773;48.868;10.730;2023-09-08T13:00:12;6.93;;;6.25;;
25982;SDS011;13773;48.868;10.730;2023-09-08T13:02:39;6.32;;;5.40;;
25982;SDS011;13773;48.868;10.730;2023-09-08T13:05:06;6.40;;;5.88;;
25982;SDS011;13773;48.868;10.730;2023-09-08T13:07:33;6.47;;;5.88;;
25982;SDS011;13773;48.868;10.730;2023-09-08T13:09:58;6.50;;;5.95;;
25982;SDS011;13773;48.868;10.730;2023-09-08T13:12:24;7.10;;;6.47;;
25982;SDS011;13773;48.868;10.730;2023-09-08T13:14:50;5.95;;;5.45;;
25982;SDS011;13773;48.868;10.730;2023-09-08T13:17:16;6.32;;;5.70;;
25982;SDS011;13773;48.868;10.730;2023-09-08T13:19:42;6.50;;;5.90;;
25982;SDS011;13773;48.868;10.730;2023-09-08T13:22:09;6.10;;;5.50;;
25982;SDS011;13773;48.868;10.730;2023-09-08T13:24:35;9.48;;;6.10;;
25982;SDS011;13773;48.868;10.730;2023-09-08T13:27:01;6.03;;;5.60;;
25982;SDS011;13773;48.868;10.730;2023-09-08T13:29:27;6.63;;;6.03;;
25982;SDS011;13773;48.868;10.730;2023-09-08T13:31:53;6.55;;;5.80;;
25982;SDS011;13773;48.868;10.730;2023-09-08T13:34:19;7.07;;;6.38;;
25982;SDS011;13773;48.868;10.730;2023-09-08T13:36:46;6.22;;;5.63;;
25982;SDS011;13773;48.868;10.730;2023-09-08T13:39:12;6.45;;;5.85;;
25982;SDS011;13773;48.868;10.730;2023-09-08T13:41:50;6.63;;;6.10;;
25982;SDS011;13773;48.868;10.730;2023-09-08T13:44:17;6.65;;;6.15;;
25982;SDS011;13773;48.868;10.730;2023-09-08T13:46:47;6.55;;;6.03;;
25982;SDS011;13773;48.868;10.730;2023-09-08T13:49:16;8.40;;;6.05;;
25982;SDS011;13773;48.868;10.730;2023-09-08T13:51:43;6.78;;;6.07;;
25982;SDS011;13773;48.868;10.730;2023-09-08T13:54:10;7.20;;;6.40;;
25982;SDS011;13773;48.868;10.730;2023-09-08T13:56:40;8.32;;;6.63;;
25982;SDS011;13773;48.868;10.730;2023-09-08T13:59:06;8.73;;;6.57;;
25982;SDS011;13773;48.868;10.730;2023-09-08T14:01:33;8.65;;;6.80;;
25982;SDS011;13773;48.868;10.730;2023-09-08T14:04:00;7.30;;;6.70;;
25982;SDS011;13773;48.868;10.730;2023-09-08T14:06:26;7.03;;;6.10;;
25982;SDS011;13773;48.868;10.730;2023-09-08T14:08:53;6.80;;;6.30;;
25982;SDS011;13773;48.868;10.730;2023-09-08T14:11:18;7.07;;;6.38;;
25982;SDS011;13773;48.868;10.730;2023-09-08T14:13:44;6.53;;;5.88;;
25982;SDS011;13773;48.868;10.730;2023-09-08T14:16:13;7.10;;;6.03;;
25982;SDS011;13773;48.868;10.730;2023-09-08T14:18:38;7.38;;;6.75;;
25982;SDS011;13773;48.868;10.730;2023-09-08T14:21:04;7.20;;;6.50;;
25982;SDS011;13773;48.868;10.730;2023-09-08T14:23:31;6.78;;;6.18;;
25982;SDS011;13773;48.868;10.730;2023-09-08T14:25:59;5.72;;;5.22;;
25982;SDS011;13773;48.868;10.730;2023-09-08T14:28:24;7.20;;;6.50;;
25982;SDS011;13773;48.868;10.730;2023-09-08T14:30:52;6.60;;;5.97;;
25982;SDS011;13773;48.868;10.730;2023-09-08T14:33:18;6.10;;;5.57;;
25982;SDS011;13773;48.868;10.730;2023-09-08T14:35:44;6.10;;;5.50;;
25982;SDS011;13773;48.868;10.730;2023-09-08T14:38:12;7.10;;;5.50;;